createdAt,value
2019-05-05T15:32:01.031Z,4.37
2019-05-05T15:34:34.351Z,4.80
2019-05-05T15:37:09.781Z,4.30
2019-05-05T15:39:44.157Z,4.47
2019-05-05T15:42:33.512Z,4.77
2019-05-05T15:45:06.150Z,4.63
2019-05-05T15:47:37.835Z,4.30
2019-05-05T15:50:10.137Z,5.20
2019-05-05T15:52:43.913Z,5.47
2019-05-05T15:55:15.526Z,5.10
2019-05-05T15:57:48.681Z,5.20
2019-05-05T16:00:20.844Z,5.50
2019-05-05T16:02:54.728Z,5.30
2019-05-05T16:05:26.277Z,5.00
2019-05-05T16:07:58.427Z,5.47
2019-05-05T16:10:30.567Z,4.73
2019-05-05T16:13:04.469Z,3.73
2019-05-05T16:15:55.727Z,4.10
2019-05-05T16:18:48.664Z,4.10
2019-05-05T16:21:43.877Z,3.53
2019-05-05T16:24:19.733Z,3.10
2019-05-05T16:26:51.375Z,3.70
2019-05-05T16:29:24.057Z,3.90
2019-05-05T16:31:56.032Z,3.53
2019-05-05T16:34:28.104Z,3.80
2019-05-05T16:36:59.832Z,4.33
2019-05-05T16:39:33.550Z,4.13
2019-05-05T16:42:05.883Z,4.20
2019-05-05T16:44:38.618Z,3.73
2019-05-05T16:47:10.497Z,3.83
2019-05-05T16:49:44.517Z,3.63
2019-05-05T16:52:23.950Z,3.80
2019-05-05T16:55:23.933Z,3.63
2019-05-05T16:57:55.738Z,4.00
2019-05-05T17:00:27.527Z,4.00
2019-05-05T17:03:00.291Z,3.97
2019-05-05T17:05:34.478Z,4.53
2019-05-05T17:08:06.417Z,4.30
2019-05-05T17:10:39.020Z,4.87
2019-05-05T17:13:21.579Z,5.43
2019-05-05T17:16:01.661Z,4.50
2019-05-05T17:18:49.327Z,4.67
2019-05-05T17:21:29.954Z,4.93
2019-05-05T17:24:01.516Z,5.27
2019-05-05T17:26:35.456Z,5.00
2019-05-05T17:29:08.254Z,5.77
2019-05-05T17:31:40.108Z,5.67
2019-05-05T17:34:13.649Z,5.37
2019-05-05T17:36:46.950Z,5.67
2019-05-05T17:39:19.226Z,5.83
2019-05-05T17:42:14.203Z,5.60
2019-05-05T17:45:00.067Z,5.07
2019-05-05T17:47:39.242Z,4.10
2019-05-05T17:50:20.281Z,4.90
2019-05-05T17:53:02.461Z,5.20
2019-05-05T17:55:36.108Z,4.90
2019-05-05T17:58:07.939Z,4.07
2019-05-05T18:00:47.161Z,4.80
2019-05-05T18:03:20.889Z,4.70
2019-05-05T18:06:11.741Z,4.47
2019-05-05T18:08:50.536Z,4.87
2019-05-05T18:11:36.211Z,4.72
2019-05-05T18:14:14.498Z,4.77
2019-05-05T18:16:46.163Z,5.00
2019-05-05T18:19:17.727Z,5.05
2019-05-05T18:21:49.209Z,4.80
2019-05-05T18:24:20.872Z,4.40
2019-05-05T18:26:53.735Z,4.30
2019-05-05T18:29:25.832Z,5.20
2019-05-05T18:31:57.536Z,4.70
2019-05-05T18:34:29.766Z,4.30
2019-05-05T18:37:01.360Z,4.70
2019-05-05T18:39:34.408Z,4.83
2019-05-05T18:42:14.917Z,4.80
2019-05-05T18:44:48.797Z,5.13
2019-05-05T18:47:20.887Z,5.30
2019-05-05T18:49:53.960Z,5.73
2019-05-05T18:52:26.298Z,5.50
2019-05-05T18:54:57.902Z,6.40
2019-05-05T18:57:29.844Z,5.90
2019-05-05T19:00:03.797Z,6.27
2019-05-05T19:02:44.244Z,6.03
2019-05-05T19:05:37.042Z,6.37
2019-05-05T19:08:14.355Z,6.60
2019-05-05T19:10:45.893Z,6.65
2019-05-05T19:13:17.801Z,6.60
2019-05-05T19:15:50.124Z,6.30
2019-05-05T19:18:24.327Z,6.72
2019-05-05T19:21:03.673Z,6.93
2019-05-05T19:23:36.653Z,6.60
2019-05-05T19:26:08.158Z,6.67
2019-05-05T19:28:44.638Z,6.53
2019-05-05T19:31:14.290Z,6.28
2019-05-05T19:33:47.132Z,7.20
2019-05-05T19:36:18.928Z,6.75
2019-05-05T19:38:51.256Z,6.90
2019-05-05T19:41:23.820Z,7.55
2019-05-05T19:43:55.479Z,6.43
2019-05-05T19:46:47.273Z,6.20
2019-05-05T19:49:19.576Z,6.60
2019-05-05T19:51:51.262Z,6.80
2019-05-05T19:54:22.996Z,6.90
2019-05-05T19:56:54.820Z,6.80
2019-05-05T19:59:26.489Z,6.37
2019-05-05T20:01:58.231Z,6.27
2019-05-05T20:04:29.993Z,6.77
2019-05-05T20:07:01.636Z,7.20
2019-05-05T20:09:34.047Z,5.47
2019-05-05T20:12:07.265Z,5.57
2019-05-05T20:14:39.256Z,6.50
2019-05-05T20:17:19.048Z,6.20
2019-05-05T20:19:54.341Z,5.80
2019-05-05T20:22:25.989Z,5.17
2019-05-05T20:24:57.693Z,5.08
2019-05-05T20:27:30.203Z,5.08
2019-05-05T20:30:01.777Z,5.53
2019-05-05T20:32:40.614Z,5.80
2019-05-05T20:35:40.977Z,4.87
2019-05-05T20:38:33.214Z,3.93
2019-05-05T20:41:14.182Z,4.42
2019-05-05T20:43:45.783Z,5.00
2019-05-05T20:46:17.289Z,4.17
2019-05-05T20:48:49.260Z,3.70
2019-05-05T20:51:24.272Z,3.20
2019-05-05T20:53:55.986Z,3.65
2019-05-05T20:56:30.441Z,4.20
2019-05-05T20:59:02.109Z,4.13
2019-05-05T21:01:34.149Z,4.28
2019-05-05T21:04:06.544Z,4.53
2019-05-05T21:06:38.441Z,5.37
2019-05-05T21:09:10.056Z,5.10
2019-05-05T21:11:43.783Z,4.60
2019-05-05T21:14:15.815Z,5.53
2019-05-05T21:16:47.674Z,5.40
2019-05-05T21:19:20.851Z,5.22
2019-05-05T21:21:54.842Z,5.00
2019-05-05T21:24:26.685Z,5.27
2019-05-05T21:27:04.318Z,5.30
2019-05-05T21:29:41.916Z,4.70
2019-05-05T21:32:09.366Z,4.23
2019-05-05T21:34:41.222Z,4.87
2019-05-05T21:37:14.170Z,5.50
2019-05-05T21:39:46.398Z,5.50
2019-05-05T21:42:18.185Z,5.80
2019-05-05T21:44:50.398Z,5.53
2019-05-05T21:47:24.009Z,6.30
2019-05-05T21:49:55.742Z,6.13
2019-05-05T21:52:39.690Z,6.60
2019-05-05T21:55:20.028Z,6.47
2019-05-05T21:58:10.815Z,6.57
2019-05-05T22:01:01.261Z,5.80
2019-05-05T22:03:37.202Z,7.33
2019-05-05T22:06:08.893Z,7.07
2019-05-05T22:08:40.501Z,7.50
2019-05-05T22:11:14.224Z,7.97
2019-05-05T22:13:47.376Z,7.53
2019-05-05T22:16:20.403Z,7.35
2019-05-05T22:18:54.080Z,7.60
2019-05-05T22:21:47.918Z,8.63
2019-05-05T22:24:20.436Z,8.07
2019-05-05T22:26:54.198Z,8.00
2019-05-05T22:29:26.014Z,8.07
2019-05-05T22:31:58.313Z,6.83
2019-05-05T22:34:33.389Z,7.73
2019-05-05T22:37:08.924Z,6.85
2019-05-05T22:39:38.313Z,7.17
2019-05-05T22:42:09.995Z,7.47
2019-05-05T22:44:43.335Z,6.83
2019-05-05T22:47:15.023Z,6.63
2019-05-05T22:49:46.526Z,7.00
2019-05-05T22:52:18.276Z,6.93
2019-05-05T22:54:50.595Z,7.33
2019-05-05T22:57:22.163Z,7.37
2019-05-05T22:59:54.209Z,6.83
2019-05-05T23:02:29.576Z,6.87
2019-05-05T23:05:07.002Z,7.10
2019-05-05T23:07:41.152Z,7.20
2019-05-05T23:10:14.095Z,6.95
2019-05-05T23:12:45.800Z,6.83
2019-05-05T23:15:17.965Z,7.28
2019-05-05T23:18:04.285Z,7.10
2019-05-05T23:21:15.554Z,7.23
2019-05-05T23:24:14.314Z,7.40
2019-05-05T23:26:46.962Z,7.30
2019-05-05T23:29:18.792Z,7.47
2019-05-05T23:31:53.846Z,7.20
2019-05-05T23:34:25.590Z,7.47
2019-05-05T23:36:57.294Z,7.03
2019-05-05T23:39:28.957Z,7.80
2019-05-05T23:42:01.556Z,7.63
2019-05-05T23:44:34.533Z,7.03
2019-05-05T23:47:07.311Z,6.93
2019-05-05T23:49:38.988Z,7.20
2019-05-05T23:52:11.518Z,6.97
2019-05-05T23:54:44.709Z,6.67
2019-05-05T23:57:16.290Z,6.60
2019-05-05T23:59:48.987Z,5.90
